createdAt,value
2018-04-12T00:07:09.000Z,45.277
2018-04-12T00:17:09.000Z,45.198
2018-04-12T00:27:09.000Z,45.292
2018-04-12T00:37:09.000Z,45.342
2018-04-12T00:47:09.000Z,45.395
2018-04-12T00:57:09.000Z,45.488
2018-04-12T01:07:09.000Z,45.57
2018-04-12T01:17:09.000Z,45.642
2018-04-12T01:27:09.000Z,45.682
2018-04-12T01:37:09.000Z,45.722
2018-04-12T01:47:09.000Z,45.731
2018-04-12T01:57:09.000Z,45.804
2018-04-12T02:07:09.000Z,45.822
2018-04-12T02:17:09.000Z,45.874
2018-04-12T02:27:09.000Z,45.916
2018-04-12T02:37:09.000Z,45.943
2018-04-12T02:47:09.000Z,45.897
2018-04-12T02:57:09.000Z,45.97
2018-04-12T03:07:09.000Z,46.02
2018-04-12T03:17:09.000Z,46.038
2018-04-12T03:27:09.000Z,46.002
2018-04-12T03:37:09.000Z,46.129
2018-04-12T03:47:09.000Z,46.16
2018-04-12T03:57:09.000Z,46.188
2018-04-12T04:07:09.000Z,46.27
2018-04-12T04:17:09.000Z,46.301
2018-04-12T04:27:09.000Z,46.331
2018-04-12T04:37:09.000Z,46.582
2018-04-12T04:47:09.000Z,46.601
2018-04-12T04:57:09.000Z,46.578
2018-04-12T05:07:09.000Z,46.63
2018-04-12T05:17:09.000Z,46.563
2018-04-12T05:27:09.000Z,46.649
2018-04-12T05:37:09.000Z,46.681
2018-04-12T05:47:09.000Z,46.626
2018-04-12T05:57:09.000Z,46.613
2018-04-12T06:07:09.000Z,46.471
2018-04-12T06:17:09.000Z,46.393
2018-04-12T06:27:10.000Z,47.856
2018-04-12T06:37:10.000Z,48.067
2018-04-12T06:47:10.000Z,48.347
2018-04-12T06:57:10.000Z,48.479
2018-04-12T07:07:10.000Z,48.48
2018-04-12T07:17:10.000Z,48.254
2018-04-12T07:27:10.000Z,48.106
2018-04-12T07:37:10.000Z,47.719
2018-04-12T07:47:10.000Z,47.658
2018-04-12T07:57:10.000Z,47.559
2018-04-12T08:07:10.000Z,47.419
2018-04-12T08:17:10.000Z,47.367
2018-04-12T08:27:10.000Z,47.069
2018-04-12T08:37:10.000Z,46.825
2018-04-12T08:47:10.000Z,46.953
2018-04-12T08:57:10.000Z,46.984
2018-04-12T09:07:10.000Z,46.875
2018-04-12T09:17:10.000Z,46.599
2018-04-12T09:27:10.000Z,45.879
2018-04-12T09:37:10.000Z,45.439
2018-04-12T09:47:10.000Z,45.288
2018-04-12T09:57:10.000Z,45.094
2018-04-12T10:07:10.000Z,44.66
2018-04-12T10:17:10.000Z,44.212
2018-04-12T10:27:10.000Z,43.68
2018-04-12T10:37:10.000Z,42.794
2018-04-12T10:47:10.000Z,42.36
2018-04-12T10:57:10.000Z,42.119
2018-04-12T11:07:10.000Z,42.155
2018-04-12T11:17:10.000Z,43.164
2018-04-12T11:27:10.000Z,42.188
2018-04-12T11:37:10.000Z,42.587
2018-04-12T11:47:10.000Z,42.127
2018-04-12T11:57:10.000Z,42.098
2018-04-12T12:07:10.000Z,42.331
2018-04-12T12:17:10.000Z,42.33
2018-04-12T12:27:10.000Z,41.718
2018-04-12T12:37:10.000Z,41.444
2018-04-12T12:47:10.000Z,41.573
2018-04-12T12:57:10.000Z,41.555
2018-04-12T13:07:10.000Z,41.559
2018-04-12T13:17:10.000Z,41.67
2018-04-12T13:27:11.000Z,41.931
2018-04-12T13:37:10.000Z,42.128
2018-04-12T13:47:10.000Z,42.357
2018-04-12T13:57:10.000Z,42.508
2018-04-12T14:07:10.000Z,42.746
2018-04-12T14:17:10.000Z,42.682
2018-04-12T14:27:10.000Z,42.534
2018-04-12T14:37:10.000Z,42.463
2018-04-12T14:47:10.000Z,42.307
2018-04-12T14:57:15.000Z,42.561
2018-04-12T15:07:15.000Z,42.892
2018-04-12T15:17:11.000Z,42.853
2018-04-12T15:27:11.000Z,43.222
2018-04-12T15:37:11.000Z,43.478
2018-04-12T15:47:11.000Z,43.866
2018-04-12T15:57:11.000Z,44.001
2018-04-12T16:07:11.000Z,44.172
2018-04-12T16:17:11.000Z,44.209
2018-04-12T16:27:11.000Z,44.262
2018-04-12T16:37:12.000Z,44.5
2018-04-12T16:47:11.000Z,44.945
2018-04-12T16:57:12.000Z,44.991
2018-04-12T17:07:11.000Z,45.399
2018-04-12T17:17:11.000Z,45.5
2018-04-12T17:27:11.000Z,45.745
2018-04-12T17:37:11.000Z,45.877
2018-04-12T17:47:11.000Z,45.931
2018-04-12T17:57:11.000Z,45.888
2018-04-12T18:07:11.000Z,45.775
2018-04-12T18:17:11.000Z,46.145
2018-04-12T18:27:11.000Z,46.65
2018-04-12T18:37:11.000Z,47.292
2018-04-12T18:47:11.000Z,48.082
2018-04-12T18:57:11.000Z,48.67
2018-04-12T19:07:11.000Z,48.669
2018-04-12T19:17:12.000Z,48.827
2018-04-12T19:27:11.000Z,48.455
2018-04-12T19:37:12.000Z,48.387
2018-04-12T19:47:11.000Z,48.333
2018-04-12T19:57:11.000Z,48.395
2018-04-12T20:07:11.000Z,48.349
2018-04-12T20:27:11.000Z,48.281
2018-04-12T20:37:11.000Z,48.267
2018-04-12T20:57:13.000Z,48.396
2018-04-12T21:27:11.000Z,48.208
2018-04-12T21:47:11.000Z,48.078
2018-04-12T21:57:11.000Z,48.085
2018-04-12T22:07:11.000Z,47.939
2018-04-12T22:17:11.000Z,47.923
2018-04-12T22:27:11.000Z,47.875
2018-04-12T22:37:11.000Z,48.053
2018-04-12T22:47:11.000Z,48.06
2018-04-12T22:57:11.000Z,48.099
2018-04-12T23:07:11.000Z,48.075
2018-04-12T23:17:12.000Z,48.083
2018-04-12T23:27:12.000Z,48.09
2018-04-12T23:37:12.000Z,48.13
2018-04-12T23:47:14.000Z,48.168
2018-04-12T23:57:12.000Z,48.145
